Time,TemperatureF,DewpointF,PressureIn,WindDirection,WindDirectionDegrees,WindSpeedMPH,WindSpeedGustMPH,Humidity,HourlyPrecipIn,Conditions,Clouds,dailyrainin,SolarRadiationWatts/m^2,SoftwareType,DateUTC
2013-03-27 00:13:00,34.0,23.0,-100.00,West,276,4.0,8.0,63,0.00,,,0.10,0.000000,,2013-03-27 04:13:00,
2013-03-27 00:23:00,34.0,23.0,-100.00,West,276,4.0,8.0,63,0.00,,,0.10,0.000000,,2013-03-27 04:23:00,
2013-03-27 00:33:00,34.0,23.0,-100.00,West,276,4.0,8.0,63,0.00,,,0.10,0.000000,,2013-03-27 04:33:00,
2013-03-27 00:43:00,34.0,23.0,-100.00,West,276,4.0,8.0,63,0.00,,,0.10,0.000000,,2013-03-27 04:43:00,
2013-03-27 01:13:00,32.0,22.0,-100.00,West,279,5.0,8.0,66,0.00,,,0.10,0.000000,,2013-03-27 05:13:00,
2013-03-27 01:23:00,32.0,22.0,-100.00,West,279,5.0,8.0,66,0.00,,,0.10,0.000000,,2013-03-27 05:23:00,
2013-03-27 01:33:00,32.0,22.0,-100.00,West,279,5.0,8.0,66,0.00,,,0.10,0.000000,,2013-03-27 05:33:00,
2013-03-27 01:42:00,32.0,22.0,-100.00,West,279,5.0,8.0,66,0.00,,,0.10,0.000000,,2013-03-27 05:42:00,
2013-03-27 02:12:00,31.0,23.0,-100.00,West,263,6.0,9.0,71,0.00,,,0.10,0.000000,,2013-03-27 06:12:00,
2013-03-27 02:22:00,31.0,23.0,-100.00,West,263,6.0,9.0,71,0.00,,,0.10,0.000000,,2013-03-27 06:22:00,
2013-03-27 02:32:00,31.0,23.0,-100.00,West,263,6.0,9.0,71,0.00,,,0.10,0.000000,,2013-03-27 06:32:00,
2013-03-27 02:42:00,31.0,23.0,-100.00,West,263,6.0,9.0,71,0.00,,,0.10,0.000000,,2013-03-27 06:42:00,
2013-03-27 03:12:00,31.0,23.0,-100.00,West,262,6.0,10.0,72,0.00,,,0.10,0.000000,,2013-03-27 07:12:00,
2013-03-27 03:22:00,31.0,23.0,-100.00,West,262,6.0,10.0,72,0.00,,,0.10,0.000000,,2013-03-27 07:22:00,
2013-03-27 03:32:00,31.0,23.0,-100.00,West,262,6.0,10.0,72,0.00,,,0.10,0.000000,,2013-03-27 07:32:00,
2013-03-27 03:42:00,31.0,23.0,-100.00,West,262,6.0,10.0,72,0.00,,,0.10,0.000000,,2013-03-27 07:42:00,
2013-03-27 04:13:00,30.0,23.0,-100.00,West,265,6.0,10.0,74,0.00,,,0.10,0.000000,,2013-03-27 08:13:00,
2013-03-27 04:22:00,30.0,23.0,-100.00,West,265,6.0,10.0,74,0.00,,,0.10,0.000000,,2013-03-27 08:22:00,
2013-03-27 04:32:00,30.0,23.0,-100.00,West,265,6.0,10.0,74,0.00,,,0.10,0.000000,,2013-03-27 08:32:00,
2013-03-27 04:43:00,30.0,23.0,-100.00,West,265,6.0,10.0,74,0.00,,,0.10,0.000000,,2013-03-27 08:43:00,
2013-03-27 05:12:00,28.0,22.0,-100.00,WSW,255,6.0,10.0,78,0.00,,,0.10,0.000000,,2013-03-27 09:12:00,
2013-03-27 05:22:00,28.0,22.0,-100.00,WSW,255,6.0,10.0,78,0.00,,,0.10,0.000000,,2013-03-27 09:22:00,
2013-03-27 05:33:00,28.0,22.0,-100.00,WSW,255,6.0,10.0,78,0.00,,,0.10,0.000000,,2013-03-27 09:33:00,
2013-03-27 05:42:00,28.0,22.0,-100.00,WSW,255,6.0,10.0,78,0.00,,,0.10,0.000000,,2013-03-27 09:42:00,
2013-03-27 06:13:00,27.0,22.0,-100.00,WSW,254,5.0,8.0,82,0.00,,,0.10,0.000000,,2013-03-27 10:13:00,
2013-03-27 06:23:00,27.0,22.0,-100.00,WSW,254,5.0,8.0,82,0.00,,,0.10,0.000000,,2013-03-27 10:23:00,
2013-03-27 06:32:00,27.0,22.0,-100.00,WSW,254,5.0,8.0,82,0.00,,,0.10,0.000000,,2013-03-27 10:32:00,
2013-03-27 06:42:00,27.0,22.0,-100.00,WSW,254,5.0,8.0,82,0.00,,,0.10,0.000000,,2013-03-27 10:42:00,
2013-03-27 07:12:00,26.0,22.0,-100.00,WSW,250,5.0,8.0,84,0.00,,,0.10,0.000000,,2013-03-27 11:12:00,
2013-03-27 07:22:00,26.0,22.0,-100.00,WSW,250,5.0,8.0,84,0.00,,,0.10,0.000000,,2013-03-27 11:22:00,
2013-03-27 07:32:00,26.0,22.0,-100.00,WSW,250,5.0,8.0,84,0.00,,,0.10,0.000000,,2013-03-27 11:32:00,
2013-03-27 07:42:00,26.0,22.0,-100.00,WSW,250,5.0,8.0,84,0.00,,,0.10,0.000000,,2013-03-27 11:42:00,
2013-03-27 08:12:00,26.0,23.0,-100.00,WSW,250,7.0,11.0,87,0.00,,,0.10,3.000000,,2013-03-27 12:12:00,
2013-03-27 08:23:00,26.0,23.0,-100.00,WSW,250,7.0,11.0,87,0.00,,,0.10,3.000000,,2013-03-27 12:23:00,
2013-03-27 08:32:00,26.0,23.0,-100.00,WSW,250,7.0,11.0,87,0.00,,,0.10,3.000000,,2013-03-27 12:32:00,
2013-03-27 08:43:00,26.0,23.0,-100.00,WSW,250,7.0,11.0,87,0.00,,,0.10,3.000000,,2013-03-27 12:43:00,
2013-03-27 09:12:00,30.0,25.0,-100.00,West,265,6.0,12.0,81,0.00,,,0.10,108.000000,,2013-03-27 13:12:00,
2013-03-27 09:23:00,30.0,25.0,-100.00,West,265,6.0,12.0,81,0.00,,,0.10,108.000000,,2013-03-27 13:23:00,
2013-03-27 09:32:00,30.0,25.0,-100.00,West,265,6.0,12.0,81,0.00,,,0.10,108.000000,,2013-03-27 13:32:00,
2013-03-27 09:42:00,30.0,25.0,-100.00,West,265,6.0,12.0,81,0.00,,,0.10,108.000000,,2013-03-27 13:42:00,
2013-03-27 10:12:00,34.0,26.0,-100.00,West,277,7.0,13.0,71,0.00,,,0.10,337.000000,,2013-03-27 14:12:00,
2013-03-27 10:22:00,34.0,26.0,-100.00,West,277,7.0,13.0,71,0.00,,,0.10,337.000000,,2013-03-27 14:22:00,
2013-03-27 10:32:00,34.0,26.0,-100.00,West,277,7.0,13.0,71,0.00,,,0.10,337.000000,,2013-03-27 14:32:00,
2013-03-27 10:42:00,34.0,26.0,-100.00,West,277,7.0,13.0,71,0.00,,,0.10,337.000000,,2013-03-27 14:42:00,
2013-03-27 11:12:00,38.0,27.0,-100.00,West,268,7.0,14.0,63,0.00,,,0.07,548.000000,,2013-03-27 15:12:00,
2013-03-27 11:23:00,38.0,27.0,-100.00,West,268,7.0,14.0,63,0.00,,,0.07,548.000000,,2013-03-27 15:23:00,
2013-03-27 11:33:00,38.0,27.0,-100.00,West,268,7.0,14.0,63,0.00,,,0.07,548.000000,,2013-03-27 15:33:00,
2013-03-27 11:43:00,38.0,27.0,-100.00,West,268,7.0,14.0,63,0.00,,,0.07,548.000000,,2013-03-27 15:43:00,
2013-03-27 14:12:00,40.0,22.0,-100.00,WNW,297,7.0,13.0,49,-99.99,,,0.00,528.000000,,2013-03-27 18:12:00,
2013-03-27 14:23:00,40.0,22.0,-100.00,WNW,297,7.0,13.0,49,-99.99,,,0.00,528.000000,,2013-03-27 18:23:00,
2013-03-27 14:32:00,40.0,22.0,-100.00,WNW,297,7.0,13.0,49,-99.99,,,0.00,528.000000,,2013-03-27 18:32:00,
2013-03-27 14:42:00,40.0,22.0,-100.00,WNW,297,7.0,13.0,49,-99.99,,,0.00,528.000000,,2013-03-27 18:42:00,
2013-03-27 15:42:00,40.0,22.0,-100.00,WNW,299,7.0,16.0,48,0.00,,,0.00,191.000000,,2013-03-27 19:42:00,
2013-03-27 16:12:00,41.0,23.0,-100.00,NW,317,5.0,12.0,49,0.00,,,0.00,222.000000,,2013-03-27 20:12:00,
2013-03-27 16:22:00,41.0,23.0,-100.00,NW,317,5.0,12.0,49,0.00,,,0.00,222.000000,,2013-03-27 20:22:00,
2013-03-27 16:32:00,41.0,23.0,-100.00,NW,317,5.0,12.0,49,0.00,,,0.00,222.000000,,2013-03-27 20:32:00,
2013-03-27 16:43:00,41.0,23.0,-100.00,NW,317,5.0,12.0,49,0.00,,,0.00,222.000000,,2013-03-27 20:43:00,
2013-03-27 17:12:00,42.0,23.0,-100.00,West,259,8.0,14.0,46,0.00,,,0.00,291.000000,,2013-03-27 21:12:00,
2013-03-27 17:23:00,42.0,23.0,-100.00,West,259,8.0,14.0,46,0.00,,,0.00,291.000000,,2013-03-27 21:23:00,
2013-03-27 17:32:00,42.0,23.0,-100.00,West,259,8.0,14.0,46,0.00,,,0.00,291.000000,,2013-03-27 21:32:00,
2013-03-27 17:43:00,42.0,23.0,-100.00,West,259,8.0,14.0,46,0.00,,,0.00,291.000000,,2013-03-27 21:43:00,
2013-03-27 18:12:00,42.0,22.0,-100.00,West,269,7.0,13.0,44,0.00,,,0.00,285.000000,,2013-03-27 22:12:00,
2013-03-27 18:23:00,42.0,22.0,-100.00,West,269,7.0,13.0,44,0.00,,,0.00,285.000000,,2013-03-27 22:23:00,
2013-03-27 18:33:00,42.0,22.0,-100.00,West,269,7.0,13.0,44,0.00,,,0.00,285.000000,,2013-03-27 22:33:00,
2013-03-27 18:42:00,42.0,22.0,-100.00,West,269,7.0,13.0,44,0.00,,,0.00,285.000000,,2013-03-27 22:42:00,
2013-03-27 19:12:00,42.0,22.0,-100.00,WNW,289,5.0,10.0,44,0.00,,,0.00,120.000000,,2013-03-27 23:12:00,
2013-03-27 19:22:00,42.0,22.0,-100.00,WNW,289,5.0,10.0,44,0.00,,,0.00,120.000000,,2013-03-27 23:22:00,
2013-03-27 19:32:00,42.0,22.0,-100.00,WNW,289,5.0,10.0,44,0.00,,,0.00,120.000000,,2013-03-27 23:32:00,
2013-03-27 19:42:00,42.0,22.0,-100.00,WNW,289,5.0,10.0,44,0.00,,,0.00,120.000000,,2013-03-27 23:42:00,
2013-03-27 20:12:00,40.0,20.0,-100.00,NW,325,2.0,8.0,45,0.00,,,0.00,40.000000,,2013-03-28 00:12:00,
2013-03-27 20:22:00,40.0,20.0,-100.00,NW,325,2.0,8.0,45,0.00,,,0.00,40.000000,,2013-03-28 00:22:00,
2013-03-27 20:33:00,40.0,20.0,-100.00,NW,325,2.0,8.0,45,0.00,,,0.00,40.000000,,2013-03-28 00:33:00,
2013-03-27 20:43:00,40.0,20.0,-100.00,NW,325,2.0,8.0,45,0.00,,,0.00,40.000000,,2013-03-28 00:43:00,